sensor_id;sensor_type;location;lat;lon;timestamp;pressure;altitude;pressure_sealevel;temperature
71205;BMP180;58935;54.498;18.544;2022-11-28T00:01:27;101525.00;;;5.10
71205;BMP180;58935;54.498;18.544;2022-11-28T00:03:55;101521.80;;;5.08
71205;BMP180;58935;54.498;18.544;2022-11-28T00:06:21;101524.80;;;5.08
71205;BMP180;58935;54.498;18.544;2022-11-28T00:08:48;101530.60;;;5.00
71205;BMP180;58935;54.498;18.544;2022-11-28T00:11:15;101531.00;;;5.00
71205;BMP180;58935;54.498;18.544;2022-11-28T00:13:41;101532.00;;;5.00
71205;BMP180;58935;54.498;18.544;2022-11-28T00:16:08;101532.60;;;5.00
71205;BMP180;58935;54.498;18.544;2022-11-28T00:18:34;101532.80;;;4.98
71205;BMP180;58935;54.498;18.544;2022-11-28T00:21:00;101534.00;;;5.00
71205;BMP180;58935;54.498;18.544;2022-11-28T00:23:26;101529.80;;;4.98
71205;BMP180;58935;54.498;18.544;2022-11-28T00:25:57;101530.40;;;5.00
71205;BMP180;58935;54.498;18.544;2022-11-28T00:28:23;101529.00;;;5.00
71205;BMP180;58935;54.498;18.544;2022-11-28T00:30:48;101532.60;;;5.00
71205;BMP180;58935;54.498;18.544;2022-11-28T00:33:14;101530.80;;;5.08
71205;BMP180;58935;54.498;18.544;2022-11-28T00:35:39;101532.40;;;5.06
71205;BMP180;58935;54.498;18.544;2022-11-28T00:38:04;101531.20;;;5.10
71205;BMP180;58935;54.498;18.544;2022-11-28T00:40:29;101529.80;;;5.00
71205;BMP180;58935;54.498;18.544;2022-11-28T00:42:55;101529.00;;;5.00
71205;BMP180;58935;54.498;18.544;2022-11-28T00:45:20;101528.00;;;5.00
71205;BMP180;58935;54.498;18.544;2022-11-28T00:47:45;101527.60;;;4.90
71205;BMP180;58935;54.498;18.544;2022-11-28T00:50:12;101521.20;;;4.90
71205;BMP180;58935;54.498;18.544;2022-11-28T00:52:37;101525.40;;;4.90
71205;BMP180;58935;54.498;18.544;2022-11-28T00:55:03;101531.20;;;4.90
71205;BMP180;58935;54.498;18.544;2022-11-28T00:57:28;101525.00;;;4.80
71205;BMP180;58935;54.498;18.544;2022-11-28T00:59:54;101523.20;;;4.80
71205;BMP180;58935;54.498;18.544;2022-11-28T01:02:19;101522.40;;;4.80
71205;BMP180;58935;54.498;18.544;2022-11-28T01:04:47;101518.40;;;4.80
71205;BMP180;58935;54.498;18.544;2022-11-28T01:07:12;101517.20;;;4.80
71205;BMP180;58935;54.498;18.544;2022-11-28T01:09:40;101519.00;;;4.84
71205;BMP180;58935;54.498;18.544;2022-11-28T01:12:05;101515.60;;;4.88
71205;BMP180;58935;54.498;18.544;2022-11-28T01:14:30;101509.80;;;4.90
71205;BMP180;58935;54.498;18.544;2022-11-28T01:16:56;101506.80;;;4.90
71205;BMP180;58935;54.498;18.544;2022-11-28T01:19:21;101502.40;;;4.90
71205;BMP180;58935;54.498;18.544;2022-11-28T01:21:51;101496.80;;;4.90
71205;BMP180;58935;54.498;18.544;2022-11-28T01:24:16;101497.40;;;4.88
71205;BMP180;58935;54.498;18.544;2022-11-28T01:26:42;101492.80;;;4.90
71205;BMP180;58935;54.498;18.544;2022-11-28T01:29:08;101495.40;;;4.90
71205;BMP180;58935;54.498;18.544;2022-11-28T01:31:33;101487.00;;;4.80
71205;BMP180;58935;54.498;18.544;2022-11-28T01:33:59;101483.60;;;4.80
71205;BMP180;58935;54.498;18.544;2022-11-28T01:36:25;101479.60;;;4.80
71205;BMP180;58935;54.498;18.544;2022-11-28T01:38:51;101478.60;;;4.80
71205;BMP180;58935;54.498;18.544;2022-11-28T01:41:20;101475.60;;;4.80
71205;BMP180;58935;54.498;18.544;2022-11-28T01:46:17;101475.00;;;4.80
71205;BMP180;58935;54.498;18.544;2022-11-28T01:48:42;101471.60;;;4.80
71205;BMP180;58935;54.498;18.544;2022-11-28T01:51:08;101471.60;;;4.80
71205;BMP180;58935;54.498;18.544;2022-11-28T01:53:38;101478.60;;;4.80
71205;BMP180;58935;54.498;18.544;2022-11-28T01:56:11;101475.00;;;4.80
71205;BMP180;58935;54.498;18.544;2022-11-28T01:58:40;101466.80;;;4.80
71205;BMP180;58935;54.498;18.544;2022-11-28T02:01:08;101467.60;;;4.80
71205;BMP180;58935;54.498;18.544;2022-11-28T02:03:40;101469.40;;;4.70
71205;BMP180;58935;54.498;18.544;2022-11-28T02:06:07;101469.00;;;4.70
71205;BMP180;58935;54.498;18.544;2022-11-28T02:08:34;101469.60;;;4.60
71205;BMP180;58935;54.498;18.544;2022-11-28T02:11:39;101466.60;;;4.60
71205;BMP180;58935;54.498;18.544;2022-11-28T02:14:12;101461.80;;;4.50
71205;BMP180;58935;54.498;18.544;2022-11-28T02:30:03;101447.80;;;4.50
71205;BMP180;58935;54.498;18.544;2022-11-28T02:32:34;101452.40;;;4.50
71205;BMP180;58935;54.498;18.544;2022-11-28T02:35:10;101446.80;;;4.50
71205;BMP180;58935;54.498;18.544;2022-11-28T02:37:51;101446.40;;;4.50
71205;BMP180;58935;54.498;18.544;2022-11-28T02:40:25;101444.40;;;4.46
71205;BMP180;58935;54.498;18.544;2022-11-28T02:43:16;101445.20;;;4.40
71205;BMP180;58935;54.498;18.544;2022-11-28T02:45:54;101449.40;;;4.30
71205;BMP180;58935;54.498;18.544;2022-11-28T02:48:25;101450.40;;;4.30
71205;BMP180;58935;54.498;18.544;2022-11-28T02:51:00;101444.60;;;4.30
71205;BMP180;58935;54.498;18.544;2022-11-28T02:53:30;101452.00;;;4.30
71205;BMP180;58935;54.498;18.544;2022-11-28T02:55:58;101450.20;;;4.20
71205;BMP180;58935;54.498;18.544;2022-11-28T02:58:23;101445.00;;;4.20
71205;BMP180;58935;54.498;18.544;2022-11-28T03:00:51;101440.20;;;4.20
71205;BMP180;58935;54.498;18.544;2022-11-28T03:03:24;101444.60;;;4.20
71205;BMP180;58935;54.498;18.544;2022-11-28T03:08:44;101442.20;;;4.20
71205;BMP180;58935;54.498;18.544;2022-11-28T03:11:23;101439.20;;;4.14
71205;BMP180;58935;54.498;18.544;2022-11-28T03:14:01;101438.60;;;4.10
71205;BMP180;58935;54.498;18.544;2022-11-28T03:16:42;101439.00;;;4.06
71205;BMP180;58935;54.498;18.544;2022-11-28T03:19:18;101438.60;;;4.00
71205;BMP180;58935;54.498;18.544;2022-11-28T03:21:56;101432.40;;;3.96
71205;BMP180;58935;54.498;18.544;2022-11-28T03:24:30;101434.20;;;3.90
71205;BMP180;58935;54.498;18.544;2022-11-28T03:27:05;101427.00;;;3.90
71205;BMP180;58935;54.498;18.544;2022-11-28T03:29:36;101427.80;;;3.90
71205;BMP180;58935;54.498;18.544;2022-11-28T03:32:10;101427.00;;;3.90
71205;BMP180;58935;54.498;18.544;2022-11-28T03:34:40;101425.20;;;3.90
71205;BMP180;58935;54.498;18.544;2022-11-28T03:37:15;101425.80;;;3.90
71205;BMP180;58935;54.498;18.544;2022-11-28T03:39:48;101428.00;;;3.90
71205;BMP180;58935;54.498;18.544;2022-11-28T03:42:20;101428.60;;;3.90
71205;BMP180;58935;54.498;18.544;2022-11-28T03:44:49;101427.00;;;3.84
71205;BMP180;58935;54.498;18.544;2022-11-28T03:47:18;101435.00;;;3.80
71205;BMP180;58935;54.498;18.544;2022-11-28T03:49:49;101436.40;;;3.70
71205;BMP180;58935;54.498;18.544;2022-11-28T03:52:22;101433.20;;;3.70
71205;BMP180;58935;54.498;18.544;2022-11-28T03:54:53;101432.60;;;3.66
71205;BMP180;58935;54.498;18.544;2022-11-28T03:59:52;101437.60;;;3.60
71205;BMP180;58935;54.498;18.544;2022-11-28T04:02:27;101435.20;;;3.60
71205;BMP180;58935;54.498;18.544;2022-11-28T04:05:02;101437.00;;;3.50
71205;BMP180;58935;54.498;18.544;2022-11-28T04:07:37;101438.40;;;3.50
71205;BMP180;58935;54.498;18.544;2022-11-28T04:10:16;101435.80;;;3.60
71205;BMP180;58935;54.498;18.544;2022-11-28T04:15:29;101437.20;;;3.60
71205;BMP180;58935;54.498;18.544;2022-11-28T04:18:04;101436.80;;;3.70
71205;BMP180;58935;54.498;18.544;2022-11-28T04:20:35;101431.00;;;3.70
71205;BMP180;58935;54.498;18.544;2022-11-28T04:23:09;101432.00;;;3.70
71205;BMP180;58935;54.498;18.544;2022-11-28T04:25:37;101429.80;;;3.80
71205;BMP180;58935;54.498;18.544;2022-11-28T04:28:10;101426.60;;;3.80
71205;BMP180;58935;54.498;18.544;2022-11-28T04:30:37;101425.80;;;3.80
71205;BMP180;58935;54.498;18.544;2022-11-28T04:33:06;101429.20;;;3.80
71205;BMP180;58935;54.498;18.544;2022-11-28T04:35:40;101430.40;;;3.80
71205;BMP180;58935;54.498;18.544;2022-11-28T04:38:08;101426.00;;;3.80
71205;BMP180;58935;54.498;18.544;2022-11-28T04:40:43;101430.40;;;3.80
71205;BMP180;58935;54.498;18.544;2022-11-28T04:43:17;101434.80;;;3.76
71205;BMP180;58935;54.498;18.544;2022-11-28T04:45:49;101439.20;;;3.80
71205;BMP180;58935;54.498;18.544;2022-11-28T04:48:15;101438.80;;;3.80
71205;BMP180;58935;54.498;18.544;2022-11-28T04:50:52;101442.20;;;3.90
71205;BMP180;58935;54.498;18.544;2022-11-28T04:53:25;101443.00;;;3.90
71205;BMP180;58935;54.498;18.544;2022-11-28T04:56:01;101437.40;;;3.90
71205;BMP180;58935;54.498;18.544;2022-11-28T04:58:33;101434.60;;;3.90
71205;BMP180;58935;54.498;18.544;2022-11-28T05:01:00;101434.80;;;3.80
71205;BMP180;58935;54.498;18.544;2022-11-28T05:03:29;101433.40;;;3.82
71205;BMP180;58935;54.498;18.544;2022-11-28T05:05:57;101434.80;;;3.90
71205;BMP180;58935;54.498;18.544;2022-11-28T05:08:23;101435.20;;;3.88
71205;BMP180;58935;54.498;18.544;2022-11-28T05:10:49;101436.00;;;3.80
71205;BMP180;58935;54.498;18.544;2022-11-28T05:13:14;101435.40;;;3.80
71205;BMP180;58935;54.498;18.544;2022-11-28T05:15:40;101430.80;;;3.70
71205;BMP180;58935;54.498;18.544;2022-11-28T05:18:05;101426.00;;;3.70
71205;BMP180;58935;54.498;18.544;2022-11-28T05:20:31;101428.40;;;3.70
71205;BMP180;58935;54.498;18.544;2022-11-28T05:22:56;101427.60;;;3.60
71205;BMP180;58935;54.498;18.544;2022-11-28T05:25:21;101427.80;;;3.60
71205;BMP180;58935;54.498;18.544;2022-11-28T05:27:47;101428.20;;;3.60
71205;BMP180;58935;54.498;18.544;2022-11-28T05:30:15;101426.80;;;3.60
71205;BMP180;58935;54.498;18.544;2022-11-28T05:32:40;101428.60;;;3.56
71205;BMP180;58935;54.498;18.544;2022-11-28T05:35:06;101431.20;;;3.50
71205;BMP180;58935;54.498;18.544;2022-11-28T05:37:35;101435.20;;;3.50
71205;BMP180;58935;54.498;18.544;2022-11-28T05:40:00;101431.40;;;3.50
71205;BMP180;58935;54.498;18.544;2022-11-28T05:42:25;101431.00;;;3.50
71205;BMP180;58935;54.498;18.544;2022-11-28T05:44:52;101428.80;;;3.50
71205;BMP180;58935;54.498;18.544;2022-11-28T05:47:18;101429.40;;;3.50
71205;BMP180;58935;54.498;18.544;2022-11-28T05:49:45;101430.40;;;3.50
71205;BMP180;58935;54.498;18.544;2022-11-28T05:52:11;101428.20;;;3.50
71205;BMP180;58935;54.498;18.544;2022-11-28T05:54:36;101428.40;;;3.50
71205;BMP180;58935;54.498;18.544;2022-11-28T05:57:01;101422.00;;;3.50
71205;BMP180;58935;54.498;18.544;2022-11-28T05:59:27;101422.00;;;3.50
71205;BMP180;58935;54.498;18.544;2022-11-28T06:01:54;101417.60;;;3.40
71205;BMP180;58935;54.498;18.544;2022-11-28T06:04:20;101415.00;;;3.30
71205;BMP180;58935;54.498;18.544;2022-11-28T06:06:45;101412.80;;;3.30
71205;BMP180;58935;54.498;18.544;2022-11-28T06:09:13;101416.60;;;3.30
71205;BMP180;58935;54.498;18.544;2022-11-28T06:11:38;101407.80;;;3.30
71205;BMP180;58935;54.498;18.544;2022-11-28T06:14:06;101409.20;;;3.32
71205;BMP180;58935;54.498;18.544;2022-11-28T06:16:32;101412.60;;;3.30
71205;BMP180;58935;54.498;18.544;2022-11-28T06:18:59;101412.80;;;3.30
71205;BMP180;58935;54.498;18.544;2022-11-28T06:21:26;101408.80;;;3.30
71205;BMP180;58935;54.498;18.544;2022-11-28T06:23:56;101404.20;;;3.30
71205;BMP180;58935;54.498;18.544;2022-11-28T06:26:23;101401.00;;;3.30
71205;BMP180;58935;54.498;18.544;2022-11-28T06:28:52;101401.60;;;3.20
71205;BMP180;58935;54.498;18.544;2022-11-28T06:31:21;101408.60;;;3.20
71205;BMP180;58935;54.498;18.544;2022-11-28T06:33:47;101411.20;;;3.20
71205;BMP180;58935;54.498;18.544;2022-11-28T06:36:14;101411.80;;;3.12
71205;BMP180;58935;54.498;18.544;2022-11-28T06:38:40;101419.40;;;3.10
71205;BMP180;58935;54.498;18.544;2022-11-28T06:41:08;101410.60;;;3.08
71205;BMP180;58935;54.498;18.544;2022-11-28T06:43:34;101414.60;;;3.08
71205;BMP180;58935;54.498;18.544;2022-11-28T06:45:59;101414.80;;;3.10
71205;BMP180;58935;54.498;18.544;2022-11-28T06:48:26;101416.40;;;3.10
71205;BMP180;58935;54.498;18.544;2022-11-28T06:50:51;101413.00;;;3.20
71205;BMP180;58935;54.498;18.544;2022-11-28T06:53:17;101413.60;;;3.30
71205;BMP180;58935;54.498;18.544;2022-11-28T06:55:43;101412.00;;;3.30
71205;BMP180;58935;54.498;18.544;2022-11-28T06:58:09;101418.00;;;3.40
71205;BMP180;58935;54.498;18.544;2022-11-28T07:00:35;101419.60;;;3.50
71205;BMP180;58935;54.498;18.544;2022-11-28T07:03:00;101417.00;;;3.50
71205;BMP180;58935;54.498;18.544;2022-11-28T07:05:26;101416.40;;;3.50
71205;BMP180;58935;54.498;18.544;2022-11-28T07:07:54;101418.60;;;3.50
71205;BMP180;58935;54.498;18.544;2022-11-28T07:10:23;101418.60;;;3.60
71205;BMP180;58935;54.498;18.544;2022-11-28T07:12:53;101419.00;;;3.60
71205;BMP180;58935;54.498;18.544;2022-11-28T07:15:19;101414.40;;;3.60
71205;BMP180;58935;54.498;18.544;2022-11-28T07:17:44;101417.00;;;3.60
71205;BMP180;58935;54.498;18.544;2022-11-28T07:20:09;101419.00;;;3.50
71205;BMP180;58935;54.498;18.544;2022-11-28T07:22:35;101415.60;;;3.40
71205;BMP180;58935;54.498;18.544;2022-11-28T07:25:00;101414.40;;;3.40
71205;BMP180;58935;54.498;18.544;2022-11-28T07:27:25;101412.40;;;3.40
71205;BMP180;58935;54.498;18.544;2022-11-28T07:29:50;101413.80;;;3.50
71205;BMP180;58935;54.498;18.544;2022-11-28T07:32:20;101414.80;;;3.54
71205;BMP180;58935;54.498;18.544;2022-11-28T07:34:45;101412.40;;;3.60
71205;BMP180;58935;54.498;18.544;2022-11-28T07:37:11;101410.60;;;3.50
71205;BMP180;58935;54.498;18.544;2022-11-28T07:39:37;101417.40;;;3.50
71205;BMP180;58935;54.498;18.544;2022-11-28T07:42:03;101407.60;;;3.50
71205;BMP180;58935;54.498;18.544;2022-11-28T07:44:28;101416.20;;;3.40
71205;BMP180;58935;54.498;18.544;2022-11-28T07:46:56;101405.40;;;3.40
71205;BMP180;58935;54.498;18.544;2022-11-28T07:49:21;101402.80;;;3.34
71205;BMP180;58935;54.498;18.544;2022-11-28T07:51:46;101400.80;;;3.32
71205;BMP180;58935;54.498;18.544;2022-11-28T07:54:12;101408.60;;;3.38
71205;BMP180;58935;54.498;18.544;2022-11-28T07:56:37;101407.00;;;3.40
71205;BMP180;58935;54.498;18.544;2022-11-28T07:59:03;101404.00;;;3.40
71205;BMP180;58935;54.498;18.544;2022-11-28T08:01:31;101402.80;;;3.44
71205;BMP180;58935;54.498;18.544;2022-11-28T08:03:58;101405.00;;;3.50
71205;BMP180;58935;54.498;18.544;2022-11-28T08:06:26;101402.40;;;3.50
71205;BMP180;58935;54.498;18.544;2022-11-28T08:08:53;101400.00;;;3.50
71205;BMP180;58935;54.498;18.544;2022-11-28T08:11:20;101399.60;;;3.50
71205;BMP180;58935;54.498;18.544;2022-11-28T08:13:48;101402.20;;;3.54
71205;BMP180;58935;54.498;18.544;2022-11-28T08:16:17;101409.60;;;3.60
71205;BMP180;58935;54.498;18.544;2022-11-28T08:18:42;101413.40;;;3.60
71205;BMP180;58935;54.498;18.544;2022-11-28T08:21:11;101412.20;;;3.50
71205;BMP180;58935;54.498;18.544;2022-11-28T08:23:38;101414.60;;;3.50
71205;BMP180;58935;54.498;18.544;2022-11-28T08:26:05;101415.60;;;3.46
71205;BMP180;58935;54.498;18.544;2022-11-28T08:28:31;101417.40;;;3.40
71205;BMP180;58935;54.498;18.544;2022-11-28T08:30:57;101411.00;;;3.44
71205;BMP180;58935;54.498;18.544;2022-11-28T08:33:26;101410.20;;;3.50
71205;BMP180;58935;54.498;18.544;2022-11-28T08:35:53;101409.80;;;3.52
71205;BMP180;58935;54.498;18.544;2022-11-28T08:38:19;101409.60;;;3.60
71205;BMP180;58935;54.498;18.544;2022-11-28T08:40:44;101404.40;;;3.70
71205;BMP180;58935;54.498;18.544;2022-11-28T08:43:09;101404.40;;;3.78
71205;BMP180;58935;54.498;18.544;2022-11-28T08:45:36;101404.00;;;3.70
71205;BMP180;58935;54.498;18.544;2022-11-28T08:48:03;101406.60;;;3.70
71205;BMP180;58935;54.498;18.544;2022-11-28T08:50:28;101404.60;;;3.70
71205;BMP180;58935;54.498;18.544;2022-11-28T08:52:53;101402.20;;;3.70
71205;BMP180;58935;54.498;18.544;2022-11-28T08:55:18;101398.40;;;3.76
71205;BMP180;58935;54.498;18.544;2022-11-28T08:57:44;101401.40;;;3.70
71205;BMP180;58935;54.498;18.544;2022-11-28T09:00:09;101404.40;;;3.70
71205;BMP180;58935;54.498;18.544;2022-11-28T09:02:35;101404.80;;;3.70
71205;BMP180;58935;54.498;18.544;2022-11-28T09:05:00;101401.00;;;3.70
71205;BMP180;58935;54.498;18.544;2022-11-28T09:07:28;101399.20;;;3.70
71205;BMP180;58935;54.498;18.544;2022-11-28T09:09:53;101397.40;;;3.72
71205;BMP180;58935;54.498;18.544;2022-11-28T09:12:18;101393.40;;;3.80
71205;BMP180;58935;54.498;18.544;2022-11-28T09:14:43;101398.40;;;3.82
71205;BMP180;58935;54.498;18.544;2022-11-28T09:17:09;101403.60;;;3.90
71205;BMP180;58935;54.498;18.544;2022-11-28T09:19:34;101398.00;;;3.98
71205;BMP180;58935;54.498;18.544;2022-11-28T09:22:00;101401.00;;;4.00
71205;BMP180;58935;54.498;18.544;2022-11-28T09:24:25;101400.60;;;4.00
71205;BMP180;58935;54.498;18.544;2022-11-28T09:26:53;101399.60;;;4.00
71205;BMP180;58935;54.498;18.544;2022-11-28T09:29:18;101395.00;;;4.00
71205;BMP180;58935;54.498;18.544;2022-11-28T09:31:43;101402.20;;;4.00
71205;BMP180;58935;54.498;18.544;2022-11-28T09:34:09;101399.60;;;3.96
71205;BMP180;58935;54.498;18.544;2022-11-28T09:36:34;101393.60;;;3.90
71205;BMP180;58935;54.498;18.544;2022-11-28T09:39:02;101398.80;;;3.90
71205;BMP180;58935;54.498;18.544;2022-11-28T09:44:05;101391.00;;;3.80
71205;BMP180;58935;54.498;18.544;2022-11-28T09:46:33;101384.80;;;3.80
71205;BMP180;58935;54.498;18.544;2022-11-28T09:49:02;101383.20;;;3.76
71205;BMP180;58935;54.498;18.544;2022-11-28T09:51:33;101383.20;;;3.80
71205;BMP180;58935;54.498;18.544;2022-11-28T09:56:31;101377.80;;;3.70
71205;BMP180;58935;54.498;18.544;2022-11-28T09:58:58;101378.40;;;3.60
71205;BMP180;58935;54.498;18.544;2022-11-28T10:01:49;101383.20;;;3.52
71205;BMP180;58935;54.498;18.544;2022-11-28T10:04:42;101381.20;;;3.50
71205;BMP180;58935;54.498;18.544;2022-11-28T10:07:19;101385.20;;;3.50
71205;BMP180;58935;54.498;18.544;2022-11-28T10:12:33;101374.20;;;3.60
71205;BMP180;58935;54.498;18.544;2022-11-28T10:15:27;101379.60;;;3.60
71205;BMP180;58935;54.498;18.544;2022-11-28T10:20:44;101375.40;;;3.80
71205;BMP180;58935;54.498;18.544;2022-11-28T10:25:51;101368.20;;;3.90
71205;BMP180;58935;54.498;18.544;2022-11-28T10:28:23;101372.00;;;3.90
71205;BMP180;58935;54.498;18.544;2022-11-28T10:30:58;101365.80;;;3.90
71205;BMP180;58935;54.498;18.544;2022-11-28T10:33:32;101358.00;;;3.90
71205;BMP180;58935;54.498;18.544;2022-11-28T10:36:01;101363.40;;;3.90
71205;BMP180;58935;54.498;18.544;2022-11-28T10:38:30;101365.60;;;3.90
71205;BMP180;58935;54.498;18.544;2022-11-28T10:41:05;101365.80;;;3.80
71205;BMP180;58935;54.498;18.544;2022-11-28T10:43:39;101361.60;;;3.70
71205;BMP180;58935;54.498;18.544;2022-11-28T10:46:22;101361.00;;;3.70
71205;BMP180;58935;54.498;18.544;2022-11-28T10:51:33;101365.80;;;3.90
71205;BMP180;58935;54.498;18.544;2022-11-28T10:56:46;101363.60;;;4.08
71205;BMP180;58935;54.498;18.544;2022-11-28T11:01:48;101359.60;;;4.12
71205;BMP180;58935;54.498;18.544;2022-11-28T11:04:18;101363.80;;;4.10
71205;BMP180;58935;54.498;18.544;2022-11-28T11:07:00;101360.40;;;4.10
71205;BMP180;58935;54.498;18.544;2022-11-28T11:09:27;101360.00;;;4.08
71205;BMP180;58935;54.498;18.544;2022-11-28T11:11:57;101359.40;;;4.00
71205;BMP180;58935;54.498;18.544;2022-11-28T11:16:56;101358.40;;;4.10
71205;BMP180;58935;54.498;18.544;2022-11-28T11:19:29;101362.40;;;4.10
71205;BMP180;58935;54.498;18.544;2022-11-28T11:22:01;101355.80;;;4.12
71205;BMP180;58935;54.498;18.544;2022-11-28T11:24:28;101359.40;;;4.14
71205;BMP180;58935;54.498;18.544;2022-11-28T11:27:15;101361.00;;;4.20
71205;BMP180;58935;54.498;18.544;2022-11-28T11:29:42;101360.80;;;4.20
71205;BMP180;58935;54.498;18.544;2022-11-28T11:32:18;101362.80;;;4.20
71205;BMP180;58935;54.498;18.544;2022-11-28T11:34:46;101364.20;;;4.20
71205;BMP180;58935;54.498;18.544;2022-11-28T11:37:17;101366.00;;;4.20
71205;BMP180;58935;54.498;18.544;2022-11-28T11:39:48;101367.20;;;4.10
71205;BMP180;58935;54.498;18.544;2022-11-28T11:42:20;101370.20;;;4.00
71205;BMP180;58935;54.498;18.544;2022-11-28T11:44:48;101364.60;;;4.00
71205;BMP180;58935;54.498;18.544;2022-11-28T11:47:14;101367.60;;;4.00
71205;BMP180;58935;54.498;18.544;2022-11-28T11:49:44;101368.20;;;4.02
71205;BMP180;58935;54.498;18.544;2022-11-28T11:52:27;101371.40;;;4.10
71205;BMP180;58935;54.498;18.544;2022-11-28T11:55:05;101363.80;;;4.10
71205;BMP180;58935;54.498;18.544;2022-11-28T11:57:39;101361.20;;;4.10
71205;BMP180;58935;54.498;18.544;2022-11-28T12:00:18;101370.60;;;4.10
71205;BMP180;58935;54.498;18.544;2022-11-28T12:02:50;101366.00;;;3.98
71205;BMP180;58935;54.498;18.544;2022-11-28T12:05:22;101364.60;;;3.88
71205;BMP180;58935;54.498;18.544;2022-11-28T12:08:10;101363.60;;;3.80
71205;BMP180;58935;54.498;18.544;2022-11-28T12:10:44;101355.80;;;3.80
71205;BMP180;58935;54.498;18.544;2022-11-28T12:13:17;101361.60;;;3.80
71205;BMP180;58935;54.498;18.544;2022-11-28T12:15:54;101356.80;;;3.86
71205;BMP180;58935;54.498;18.544;2022-11-28T12:18:34;101355.60;;;3.90
71205;BMP180;58935;54.498;18.544;2022-11-28T12:21:14;101353.20;;;3.90
71205;BMP180;58935;54.498;18.544;2022-11-28T12:29:11;101345.60;;;3.96
71205;BMP180;58935;54.498;18.544;2022-11-28T12:31:50;101343.40;;;3.94
71205;BMP180;58935;54.498;18.544;2022-11-28T12:37:05;101338.00;;;3.94
71205;BMP180;58935;54.498;18.544;2022-11-28T12:39:43;101338.40;;;3.92
71205;BMP180;58935;54.498;18.544;2022-11-28T12:42:39;101336.80;;;3.90
71205;BMP180;58935;54.498;18.544;2022-11-28T12:45:26;101331.20;;;3.90
71205;BMP180;58935;54.498;18.544;2022-11-28T12:48:07;101332.20;;;3.90
71205;BMP180;58935;54.498;18.544;2022-11-28T12:50:37;101333.80;;;3.90
71205;BMP180;58935;54.498;18.544;2022-11-28T12:53:30;101332.20;;;3.90
71205;BMP180;58935;54.498;18.544;2022-11-28T12:56:08;101330.40;;;3.90
71205;BMP180;58935;54.498;18.544;2022-11-28T13:01:18;101326.00;;;3.90
71205;BMP180;58935;54.498;18.544;2022-11-28T13:04:01;101324.60;;;3.80
71205;BMP180;58935;54.498;18.544;2022-11-28T13:09:17;101320.80;;;3.70
71205;BMP180;58935;54.498;18.544;2022-11-28T13:11:58;101322.40;;;3.60
71205;BMP180;58935;54.498;18.544;2022-11-28T13:14:47;101317.80;;;3.60
71205;BMP180;58935;54.498;18.544;2022-11-28T13:17:27;101316.00;;;3.60
71205;BMP180;58935;54.498;18.544;2022-11-28T13:22:42;101316.20;;;3.60
71205;BMP180;58935;54.498;18.544;2022-11-28T13:25:18;101312.60;;;3.60
71205;BMP180;58935;54.498;18.544;2022-11-28T13:27:52;101305.40;;;3.50
71205;BMP180;58935;54.498;18.544;2022-11-28T13:30:22;101309.40;;;3.60
71205;BMP180;58935;54.498;18.544;2022-11-28T13:32:58;101306.00;;;3.70
71205;BMP180;58935;54.498;18.544;2022-11-28T13:35:26;101302.60;;;3.70
71205;BMP180;58935;54.498;18.544;2022-11-28T13:38:03;101309.40;;;3.70
71205;BMP180;58935;54.498;18.544;2022-11-28T13:40:37;101310.40;;;3.80
71205;BMP180;58935;54.498;18.544;2022-11-28T13:45:40;101312.20;;;3.80
71205;BMP180;58935;54.498;18.544;2022-11-28T13:50:40;101313.80;;;3.80
71205;BMP180;58935;54.498;18.544;2022-11-28T13:53:23;101318.20;;;3.76
71205;BMP180;58935;54.498;18.544;2022-11-28T13:55:52;101320.20;;;3.70
71205;BMP180;58935;54.498;18.544;2022-11-28T13:58:33;101319.60;;;3.70
71205;BMP180;58935;54.498;18.544;2022-11-28T14:01:11;101318.60;;;3.70
71205;BMP180;58935;54.498;18.544;2022-11-28T14:03:45;101317.60;;;3.64
71205;BMP180;58935;54.498;18.544;2022-11-28T14:06:15;101318.20;;;3.60
71205;BMP180;58935;54.498;18.544;2022-11-28T14:08:43;101318.20;;;3.60
71205;BMP180;58935;54.498;18.544;2022-11-28T14:11:22;101321.60;;;3.60
71205;BMP180;58935;54.498;18.544;2022-11-28T14:16:45;101316.20;;;3.50
71205;BMP180;58935;54.498;18.544;2022-11-28T14:19:21;101318.60;;;3.58
71205;BMP180;58935;54.498;18.544;2022-11-28T14:24:26;101326.20;;;3.62
71205;BMP180;58935;54.498;18.544;2022-11-28T14:26:59;101323.80;;;3.70
71205;BMP180;58935;54.498;18.544;2022-11-28T14:29:34;101328.80;;;3.70
71205;BMP180;58935;54.498;18.544;2022-11-28T14:32:00;101332.60;;;3.70
71205;BMP180;58935;54.498;18.544;2022-11-28T14:34:46;101331.40;;;3.70
71205;BMP180;58935;54.498;18.544;2022-11-28T14:37:33;101332.80;;;3.68
71205;BMP180;58935;54.498;18.544;2022-11-28T14:39:59;101332.80;;;3.60
71205;BMP180;58935;54.498;18.544;2022-11-28T14:42:33;101336.00;;;3.50
71205;BMP180;58935;54.498;18.544;2022-11-28T14:45:02;101337.60;;;3.50
71205;BMP180;58935;54.498;18.544;2022-11-28T14:47:30;101347.20;;;3.60
71205;BMP180;58935;54.498;18.544;2022-11-28T14:52:47;101339.80;;;3.50
71205;BMP180;58935;54.498;18.544;2022-11-28T14:55:17;101337.60;;;3.50
71205;BMP180;58935;54.498;18.544;2022-11-28T15:00:19;101333.00;;;3.50
71205;BMP180;58935;54.498;18.544;2022-11-28T15:07:59;101326.60;;;3.60
71205;BMP180;58935;54.498;18.544;2022-11-28T15:10:37;101324.40;;;3.60
71205;BMP180;58935;54.498;18.544;2022-11-28T15:13:14;101323.40;;;3.50
71205;BMP180;58935;54.498;18.544;2022-11-28T15:15:47;101322.40;;;3.50
71205;BMP180;58935;54.498;18.544;2022-11-28T15:18:17;101327.80;;;3.50
71205;BMP180;58935;54.498;18.544;2022-11-28T15:20:47;101325.20;;;3.50
71205;BMP180;58935;54.498;18.544;2022-11-28T15:23:20;101330.00;;;3.40
71205;BMP180;58935;54.498;18.544;2022-11-28T15:25:51;101327.00;;;3.32
71205;BMP180;58935;54.498;18.544;2022-11-28T15:28:18;101332.20;;;3.30
71205;BMP180;58935;54.498;18.544;2022-11-28T15:30:46;101335.20;;;3.20
71205;BMP180;58935;54.498;18.544;2022-11-28T15:33:12;101338.00;;;3.20
71205;BMP180;58935;54.498;18.544;2022-11-28T15:35:40;101346.80;;;3.10
71205;BMP180;58935;54.498;18.544;2022-11-28T15:38:16;101343.80;;;3.00